createdAt,value
2022-07-26T00:00:58.152Z,1.50
2022-07-26T00:03:29.096Z,1.67
2022-07-26T00:06:00.838Z,1.55
2022-07-26T00:08:29.470Z,1.40
2022-07-26T00:11:07.141Z,1.52
2022-07-26T00:13:37.904Z,1.40
2022-07-26T00:16:09.447Z,1.67
2022-07-26T00:18:41.792Z,1.42
2022-07-26T00:21:28.114Z,1.40
2022-07-26T00:24:19.611Z,1.80
2022-07-26T00:27:16.764Z,1.70
2022-07-26T00:29:48.196Z,1.70
2022-07-26T00:32:17.662Z,1.58
2022-07-26T00:35:45.786Z,1.77
2022-07-26T00:38:27.012Z,1.40
2022-07-26T00:41:03.275Z,1.38
2022-07-26T00:43:35.283Z,1.40
2022-07-26T00:46:04.709Z,1.40
2022-07-26T00:48:33.056Z,1.67
2022-07-26T00:51:01.588Z,1.42
2022-07-26T00:53:31.134Z,1.42
2022-07-26T00:55:59.679Z,1.67
2022-07-26T00:58:27.722Z,1.40
2022-07-26T01:00:57.020Z,1.42
2022-07-26T01:03:24.913Z,1.70
2022-07-26T01:05:58.771Z,1.70
2022-07-26T01:08:27.307Z,1.65
2022-07-26T01:10:55.843Z,1.60
2022-07-26T01:13:25.803Z,1.60
2022-07-26T01:15:54.080Z,1.30
2022-07-26T01:18:23.597Z,1.60
2022-07-26T01:20:52.863Z,1.58
2022-07-26T01:23:22.356Z,1.90
2022-07-26T01:25:50.619Z,1.63
2022-07-26T01:28:20.522Z,1.80
2022-07-26T01:30:50.017Z,1.20
2022-07-26T01:33:19.013Z,1.50
2022-07-26T01:35:48.003Z,1.50
2022-07-26T01:38:16.386Z,1.50
2022-07-26T01:40:46.699Z,1.55
2022-07-26T01:43:15.727Z,1.67
2022-07-26T01:45:44.787Z,1.63
2022-07-26T01:48:12.877Z,1.60
2022-07-26T01:50:41.243Z,1.63
2022-07-26T01:53:10.064Z,1.50
2022-07-26T01:55:38.661Z,1.70
2022-07-26T01:58:09.220Z,1.50
2022-07-26T02:00:38.467Z,1.83
2022-07-26T02:03:07.135Z,1.45
2022-07-26T02:05:36.439Z,1.58
2022-07-26T02:08:05.190Z,1.70
2022-07-26T02:10:47.812Z,1.55
2022-07-26T02:13:18.106Z,1.80
2022-07-26T02:15:47.631Z,1.60
2022-07-26T02:18:16.323Z,1.45
2022-07-26T02:20:45.578Z,1.70
2022-07-26T02:23:15.783Z,1.30
2022-07-26T02:25:44.324Z,1.40
2022-07-26T02:28:16.031Z,1.52
2022-07-26T02:30:49.957Z,1.50
2022-07-26T02:33:21.695Z,1.80
2022-07-26T02:35:51.206Z,1.30
2022-07-26T02:38:23.012Z,1.67
2022-07-26T02:40:56.662Z,1.58
2022-07-26T02:43:26.885Z,1.67
2022-07-26T02:46:01.066Z,1.60
2022-07-26T02:48:31.040Z,1.65
2022-07-26T02:50:59.592Z,1.70
2022-07-26T02:53:28.641Z,1.52
2022-07-26T02:56:05.298Z,1.70
2022-07-26T02:58:33.671Z,2.20
2022-07-26T03:01:03.765Z,1.75
2022-07-26T03:03:36.530Z,1.90
2022-07-26T03:06:05.892Z,1.42
2022-07-26T03:08:34.289Z,1.63
2022-07-26T03:11:11.957Z,1.83
2022-07-26T03:13:41.686Z,2.05
2022-07-26T03:16:12.594Z,2.05
2022-07-26T03:18:42.289Z,1.45
2022-07-26T03:21:11.354Z,1.67
2022-07-26T03:23:40.724Z,1.92
2022-07-26T03:26:11.004Z,1.50
2022-07-26T03:28:42.414Z,1.60
2022-07-26T03:31:13.749Z,1.60
2022-07-26T03:36:26.185Z,1.70
2022-07-26T03:38:55.041Z,1.88
2022-07-26T03:41:24.598Z,1.50
2022-07-26T03:43:53.556Z,1.52
2022-07-26T03:46:23.750Z,1.70
2022-07-26T03:48:52.382Z,2.22
2022-07-26T03:51:22.368Z,1.90
2022-07-26T03:53:51.465Z,1.77
2022-07-26T03:56:29.013Z,2.00
2022-07-26T03:58:57.552Z,1.77
2022-07-26T04:01:27.449Z,1.70
2022-07-26T04:03:55.989Z,1.80
2022-07-26T04:06:25.434Z,1.60
2022-07-26T04:08:54.608Z,1.70
2022-07-26T04:11:23.107Z,1.80
2022-07-26T04:13:57.853Z,1.90
2022-07-26T04:16:29.196Z,2.05
2022-07-26T04:18:58.914Z,2.10
2022-07-26T04:21:27.319Z,1.67
2022-07-26T04:23:55.816Z,2.08
2022-07-26T04:26:24.747Z,1.52
2022-07-26T04:29:03.414Z,1.60
2022-07-26T04:31:38.748Z,1.45
2022-07-26T04:34:09.084Z,1.50
2022-07-26T04:36:41.235Z,1.63
2022-07-26T04:39:13.661Z,1.58
2022-07-26T04:41:46.382Z,1.95
2022-07-26T04:44:18.128Z,2.15
2022-07-26T04:46:58.976Z,1.73
2022-07-26T04:49:41.426Z,1.85
2022-07-26T04:52:09.740Z,1.65
2022-07-26T04:54:37.947Z,1.80
2022-07-26T04:57:09.101Z,1.67
2022-07-26T04:59:37.189Z,1.80
2022-07-26T05:02:14.366Z,1.70
2022-07-26T05:04:45.952Z,2.20
2022-07-26T05:07:19.074Z,1.90
2022-07-26T05:09:55.567Z,2.00
2022-07-26T05:12:23.480Z,2.08
2022-07-26T05:14:52.511Z,1.90
2022-07-26T05:17:23.915Z,1.98
2022-07-26T05:19:58.788Z,2.20
2022-07-26T05:22:31.637Z,2.00
2022-07-26T05:25:01.219Z,2.10
2022-07-26T05:27:30.933Z,2.15
2022-07-26T05:30:02.469Z,2.00
2022-07-26T05:32:32.075Z,2.30
2022-07-26T05:35:04.892Z,2.38
2022-07-26T05:37:33.125Z,2.30
2022-07-26T05:40:19.713Z,1.75
2022-07-26T05:42:47.865Z,2.20
2022-07-26T05:45:16.045Z,2.22
2022-07-26T05:47:50.622Z,2.00
2022-07-26T05:50:18.511Z,2.10
2022-07-26T05:52:46.331Z,2.30
2022-07-26T05:55:14.520Z,2.03
2022-07-26T05:57:42.800Z,2.10
2022-07-26T06:00:11.425Z,1.98
2022-07-26T06:02:41.948Z,2.15
2022-07-26T06:05:11.314Z,2.00
2022-07-26T06:07:39.148Z,2.13
2022-07-26T06:10:40.564Z,2.60
2022-07-26T06:13:56.676Z,2.10
2022-07-26T06:17:22.692Z,2.38
2022-07-26T06:20:07.474Z,2.10
2022-07-26T06:23:40.757Z,2.20
2022-07-26T06:27:23.362Z,2.20
2022-07-26T06:34:54.160Z,2.25
2022-07-26T06:38:42.456Z,2.40
2022-07-26T06:41:44.116Z,2.70
2022-07-26T06:47:46.778Z,2.33
2022-07-26T07:02:30.255Z,3.75
2022-07-26T07:05:27.773Z,3.60
2022-07-26T07:08:06.579Z,3.55
2022-07-26T07:11:07.024Z,3.80
2022-07-26T07:14:12.992Z,3.58
2022-07-26T07:16:55.470Z,3.55
2022-07-26T07:20:05.260Z,3.55
2022-07-26T07:26:25.490Z,3.63
2022-07-26T07:28:55.851Z,3.85
2022-07-26T07:31:48.767Z,3.55
2022-07-26T07:34:37.139Z,3.90
2022-07-26T07:37:11.252Z,3.38
2022-07-26T07:39:52.954Z,3.67
2022-07-26T07:45:48.556Z,4.13
2022-07-26T07:48:24.347Z,4.07
2022-07-26T07:50:59.440Z,2.97
2022-07-26T08:50:44.557Z,3.25
2022-07-26T08:53:14.341Z,2.17
2022-07-26T08:56:05.794Z,2.50
2022-07-26T08:58:30.038Z,2.67
2022-07-26T09:01:09.124Z,2.80
2022-07-26T09:03:38.631Z,2.65
2022-07-26T09:06:21.136Z,2.67
2022-07-26T09:12:14.816Z,2.60
2022-07-26T09:14:43.064Z,2.28
2022-07-26T09:17:10.979Z,3.13
2022-07-26T09:19:38.841Z,2.80
2022-07-26T09:22:12.036Z,2.95
2022-07-26T09:24:42.587Z,3.42
2022-07-26T09:27:13.540Z,2.97
2022-07-26T09:29:47.385Z,3.13
2022-07-26T09:32:21.090Z,2.75
2022-07-26T09:34:53.469Z,3.28
2022-07-26T09:40:55.957Z,3.22
2022-07-26T09:43:25.405Z,2.95
2022-07-26T09:46:21.275Z,2.88
2022-07-26T09:51:39.846Z,3.13
2022-07-26T09:54:09.221Z,3.60
2022-07-26T09:56:48.789Z,2.97
2022-07-26T09:59:21.867Z,3.10
2022-07-26T10:02:06.707Z,3.08
2022-07-26T10:31:23.317Z,2.88
2022-07-26T10:33:58.929Z,2.80
2022-07-26T10:36:30.351Z,3.53
2022-07-26T10:39:13.233Z,3.40
2022-07-26T10:41:44.020Z,2.95
2022-07-26T10:44:21.117Z,3.35
2022-07-26T10:47:01.498Z,3.65
2022-07-26T10:49:33.520Z,3.95
2022-07-26T10:52:16.864Z,3.42
2022-07-26T10:55:17.271Z,3.65
2022-07-26T11:05:57.495Z,3.88
2022-07-26T11:37:05.314Z,3.72
2022-07-26T11:40:29.392Z,3.72
2022-07-26T11:52:03.549Z,2.38
2022-07-26T12:06:40.099Z,2.00
2022-07-26T12:10:02.146Z,1.80
2022-07-26T12:30:30.798Z,2.28
2022-07-26T12:37:41.704Z,1.52
2022-07-26T12:40:23.695Z,2.00
2022-07-26T12:47:30.599Z,2.15
2022-07-26T12:49:59.386Z,2.15
2022-07-26T12:52:27.457Z,2.45
2022-07-26T12:54:56.619Z,2.13
2022-07-26T12:57:24.371Z,2.35
2022-07-26T12:59:52.201Z,2.30
2022-07-26T13:02:20.649Z,2.30
2022-07-26T13:04:49.200Z,2.92
2022-07-26T13:07:29.700Z,2.80
2022-07-26T13:10:33.635Z,3.17
2022-07-26T13:13:05.138Z,2.33
2022-07-26T13:15:59.013Z,2.30
2022-07-26T13:22:34.477Z,2.00
2022-07-26T13:28:45.659Z,2.17
2022-07-26T13:36:16.565Z,1.80
2022-07-26T13:38:44.566Z,2.10
2022-07-26T13:41:18.383Z,2.03
2022-07-26T13:43:46.878Z,2.10
2022-07-26T13:46:14.729Z,1.77
2022-07-26T13:48:59.644Z,1.83
2022-07-26T13:51:45.528Z,1.73
2022-07-26T13:54:13.996Z,2.10
2022-07-26T13:56:44.411Z,2.00
2022-07-26T13:59:12.898Z,1.70
2022-07-26T14:01:42.213Z,1.95
2022-07-26T14:04:13.642Z,2.30
2022-07-26T14:06:41.969Z,1.92
2022-07-26T14:09:11.219Z,2.03
2022-07-26T14:11:39.762Z,1.95
2022-07-26T14:14:09.557Z,2.53
2022-07-26T14:16:37.681Z,2.10
2022-07-26T14:19:06.284Z,2.17
2022-07-26T14:21:43.630Z,1.67
2022-07-26T14:24:20.827Z,2.17
2022-07-26T14:26:48.791Z,1.90
2022-07-26T14:29:17.978Z,2.25
2022-07-26T14:31:45.867Z,1.90
2022-07-26T14:34:14.397Z,2.40
2022-07-26T14:36:42.768Z,2.08
2022-07-26T14:39:10.536Z,2.00
2022-07-26T14:41:41.333Z,1.98
2022-07-26T14:44:13.285Z,1.92
2022-07-26T14:47:15.650Z,1.90
2022-07-26T14:49:43.720Z,1.85
2022-07-26T14:52:39.209Z,2.08
2022-07-26T14:55:30.193Z,1.90
2022-07-26T14:57:57.989Z,1.80
2022-07-26T15:00:25.881Z,1.90
2022-07-26T15:02:55.191Z,1.80
2022-07-26T15:05:23.294Z,2.00
2022-07-26T15:07:51.031Z,1.77
2022-07-26T15:10:29.040Z,2.15
2022-07-26T15:12:56.938Z,1.70
2022-07-26T15:15:24.900Z,1.80
2022-07-26T15:17:53.023Z,2.05
2022-07-26T15:24:50.131Z,1.95
2022-07-26T15:27:17.861Z,1.73
2022-07-26T15:29:46.758Z,1.50
2022-07-26T15:32:14.664Z,1.83
2022-07-26T15:34:42.500Z,1.98
2022-07-26T15:37:24.987Z,1.83
2022-07-26T15:40:02.526Z,2.17
2022-07-26T15:42:56.311Z,2.20
2022-07-26T15:45:47.645Z,2.10
2022-07-26T15:48:57.977Z,1.77
2022-07-26T15:51:53.375Z,1.73
2022-07-26T15:54:22.691Z,1.40
2022-07-26T15:56:51.952Z,1.42
2022-07-26T15:59:21.464Z,1.67
2022-07-26T16:01:49.480Z,1.25
2022-07-26T16:04:17.575Z,1.40
2022-07-26T16:06:45.367Z,1.50
2022-07-26T16:09:17.110Z,1.40
2022-07-26T16:11:46.479Z,1.50
2022-07-26T16:14:18.243Z,1.30
2022-07-26T16:16:46.351Z,1.30
2022-07-26T16:19:14.542Z,1.02
2022-07-26T16:21:42.609Z,1.23
2022-07-26T16:24:11.780Z,1.35
2022-07-26T16:26:40.742Z,1.10
2022-07-26T16:29:08.992Z,1.10
2022-07-26T16:32:19.422Z,1.45
2022-07-26T16:38:15.481Z,1.17
2022-07-26T16:40:54.919Z,1.42
2022-07-26T16:43:57.294Z,1.25
2022-07-26T16:47:16.511Z,1.30
2022-07-26T16:50:49.257Z,1.20
2022-07-26T16:53:56.446Z,1.40
2022-07-26T16:56:24.188Z,1.20
2022-07-26T16:58:51.928Z,1.10
2022-07-26T17:01:19.792Z,1.17
2022-07-26T17:03:49.002Z,1.48
2022-07-26T17:06:16.823Z,1.60
2022-07-26T17:08:44.598Z,1.63
2022-07-26T17:11:12.329Z,1.50
2022-07-26T17:13:40.281Z,1.35
2022-07-26T17:16:08.037Z,1.25
2022-07-26T17:18:35.855Z,1.80
2022-07-26T17:21:05.018Z,1.30
2022-07-26T17:23:32.851Z,1.20
2022-07-26T17:26:00.642Z,1.27
2022-07-26T17:28:28.411Z,1.35
2022-07-26T17:30:56.189Z,1.55
2022-07-26T17:33:23.991Z,1.40
2022-07-26T17:35:51.778Z,1.83
2022-07-26T17:38:20.940Z,1.50
2022-07-26T17:40:51.198Z,1.75
2022-07-26T17:43:18.974Z,1.85
2022-07-26T17:45:46.709Z,1.52
2022-07-26T17:48:14.454Z,1.40
2022-07-26T17:50:42.265Z,1.17
2022-07-26T17:53:10.023Z,1.38
2022-07-26T17:55:39.089Z,1.50
2022-07-26T17:58:06.824Z,1.45
2022-07-26T18:00:34.624Z,1.30
2022-07-26T18:03:02.410Z,1.58
2022-07-26T18:05:35.100Z,1.50
2022-07-26T18:08:05.406Z,1.50
2022-07-26T18:10:33.179Z,1.23
2022-07-26T18:13:02.374Z,1.30
2022-07-26T18:15:30.283Z,1.27
2022-07-26T18:17:58.117Z,1.15
2022-07-26T18:20:26.029Z,1.38
2022-07-26T18:22:55.370Z,1.10
2022-07-26T18:25:23.144Z,1.52
2022-07-26T18:27:51.008Z,1.70
2022-07-26T18:30:20.185Z,1.42
2022-07-26T18:32:47.978Z,1.38
2022-07-26T18:35:15.832Z,1.40
2022-07-26T18:37:43.742Z,1.30
2022-07-26T18:40:12.229Z,1.40
2022-07-26T18:42:40.398Z,1.55
2022-07-26T18:45:08.863Z,1.30
2022-07-26T18:47:37.992Z,1.50
2022-07-26T18:50:07.908Z,1.50
2022-07-26T18:52:36.006Z,1.60
2022-07-26T18:55:07.007Z,1.40
2022-07-26T18:57:35.822Z,1.15
2022-07-26T19:00:06.052Z,1.48
2022-07-26T19:02:33.908Z,1.30
2022-07-26T19:05:03.181Z,1.10
2022-07-26T19:07:31.612Z,1.27
2022-07-26T19:09:59.504Z,1.20
2022-07-26T19:12:28.120Z,1.33
2022-07-26T19:14:56.144Z,1.20
2022-07-26T19:17:24.009Z,1.40
2022-07-26T19:19:51.766Z,1.40
2022-07-26T19:22:21.687Z,1.15
2022-07-26T19:24:49.759Z,1.33
2022-07-26T19:27:17.692Z,1.40
2022-07-26T19:29:48.576Z,1.40
2022-07-26T19:33:27.170Z,1.25
2022-07-26T19:36:36.704Z,1.30
2022-07-26T19:47:17.951Z,1.40
2022-07-26T19:49:45.868Z,1.70
2022-07-26T19:52:13.651Z,1.50
2022-07-26T19:54:41.404Z,1.67
2022-07-26T19:57:09.244Z,1.83
2022-07-26T19:59:37.060Z,2.10
2022-07-26T20:02:41.639Z,1.90
2022-07-26T20:06:07.671Z,2.40
2022-07-26T20:09:07.055Z,1.70
2022-07-26T20:15:22.693Z,1.60
2022-07-26T20:22:01.566Z,1.58
2022-07-26T20:25:24.420Z,1.48
2022-07-26T20:29:01.827Z,1.45
2022-07-26T20:48:24.494Z,1.60
2022-07-26T20:51:01.439Z,1.60
2022-07-26T21:39:23.862Z,1.50
2022-07-26T21:47:46.699Z,1.42
2022-07-26T21:50:19.387Z,1.52
2022-07-26T22:50:01.506Z,2.00
2022-07-26T22:57:51.203Z,1.80
2022-07-26T23:06:02.143Z,1.50
2022-07-26T23:36:59.855Z,2.45
2022-07-26T23:40:21.638Z,1.90
2022-07-26T23:43:21.513Z,1.63
2022-07-26T23:49:39.254Z,2.00
2022-07-26T23:55:44.334Z,2.20
2022-07-26T23:58:42.996Z,1.85
